Flight Track Log - Related Links

Times and Time Zones

All times are in EDT time to prevent confusion due to time zone crossing. See the UPS1337 flight status page for this flight to view local times or setup timezone preferences in your user account.

Time Position Orientation Groundspeed Altitude Reporting Facility
EDT Latitude Longitude Course Direction KTS MPH feet Rate Location/Type
Wed 09:56:12 PM 27.9333 -82.7000 24° Northeast 174 200 900  Level Tampa TRACON
Wed 09:57:31 PM 28.0000 -82.6667 24° Northeast 263 303 3,600 2,526 Climbing Tampa TRACON
Wed 09:58:25 PM 28.0667 -82.7000 336° Northwest 283 326 6,500 2,850 Climbing Tampa TRACON
Wed 10:00:11 PM 28.1933 -82.7272 349° North 302 348 11,200 2,192 Climbing Miami Center
Wed 10:01:12 PM 28.2947 -82.7389 354° North 361 415 12,600 2,083 Climbing Miami Center
Wed 10:02:12 PM 28.4092 -82.7464 357° North 400 460 15,400 2,557 Climbing Miami Center
Wed 10:03:14 PM 28.5253 -82.7564 356° North 412 474 17,800 2,439 Climbing Miami Center
Wed 10:04:15 PM 28.6603 -82.7631 358° North 424 488 20,400 2,331 Climbing Miami Center
Wed 10:05:15 PM 28.7814 -82.8014 344° North 445 512 22,500 1,900 Climbing Miami Center
Wed 10:06:15 PM 28.9039 -82.8392 345° North 453 521 24,200 1,700 Climbing Miami Center
Wed 10:07:15 PM 29.0308 -82.8797 344° North 471 542 25,900 1,659 Climbing Miami Center
Wed 10:08:18 PM 29.1589 -82.9228 344° North 475 547 27,600 1,790 Climbing Miami Center
Wed 10:09:19 PM 29.2875 -82.9636 345° North 476 548 29,600 1,950 Climbing Miami Center
Wed 10:10:18 PM 29.4142 -83.0044 344° North 475 547 31,500 1,200 Climbing Miami Center
Wed 10:11:19 PM 29.5383 -83.0450 344° North 466 536 32,000 242 Climbing Miami Center
Wed 10:12:22 PM 29.6631 -83.0869 344° North 463 533 32,000  Level Miami Center
Wed 10:13:48 PM 29.8637 -83.1518 344° North 465 535 32,000  Level FlightAware ADS-B (KONZ)
Wed 10:14:24 PM 29.9183 -83.1700 344° North 462 532 32,000  Level Miami Center
Wed 10:15:24 PM 30.0431 -83.2103 344° North 462 532 32,000  Level Miami Center
Wed 10:20:50 PM 30.7441 -83.4053 346° North 460 529 32,000  Level FlightAware ADS-B (KONZ)
Wed 10:21:21 PM 30.6522 -83.3794 346° North 459 528 32,000  Level FlightAware ADS-B (KONZ)
Wed 10:22:36 PM 30.9616 -83.4667 346° North 459 528 32,000  Level FlightAware ADS-B (KONZ)
Wed 10:23:19 PM 31.0465 -83.4908 346° North 459 528 32,000  Level FlightAware ADS-B (KONZ)
Wed 10:24:20 PM 31.1767 -83.5278 346° North 456 525 32,000  Level FlightAware ADS-B (KONZ)
Wed 10:25:00 PM 31.2364 -83.5458 346° North 460 529 32,000  Level Atlanta Center
Wed 10:26:00 PM 31.3597 -83.5817 346° North 466 536 32,000  Level Atlanta Center
Wed 10:27:00 PM 31.4828 -83.6175 346° North 460 529 32,000  Level Atlanta Center
Wed 10:28:00 PM 31.6042 -83.6486 348° North 454 522 32,000  Level Atlanta Center
Wed 10:29:00 PM 31.7419 -83.6897 346° North 454 522 32,000  Level Atlanta Center
Wed 10:30:00 PM 31.8569 -83.7233 346° North 464 534 32,000  Level Atlanta Center
Wed 10:31:00 PM 31.9781 -83.7597 346° North 464 534 32,000  Level Atlanta Center
Wed 10:32:00 PM 32.1033 -83.7936 347° North 453 521 32,000  Level Atlanta Center
Wed 10:33:00 PM 32.2244 -83.8300 346° North 453 521 32,000  Level Atlanta Center
Wed 10:34:00 PM 32.3475 -83.8667 346° North 453 521 32,000  Level Atlanta Center
Wed 10:35:00 PM 32.4708 -83.9033 346° North 453 521 32,000  Level Atlanta Center
Wed 10:36:00 PM 32.5961 -83.9378 347° North 453 521 32,000  Level Atlanta Center
Wed 10:37:00 PM 32.7172 -83.9747 346° North 453 521 32,000  Level Atlanta Center
Wed 10:38:00 PM 32.8403 -84.0117 346° North 453 521 32,000  Level Atlanta Center
Wed 10:39:00 PM 32.9636 -84.0511 345° North 453 521 32,000  Level Atlanta Center
Wed 10:40:00 PM 33.0867 -84.0833 348° North 453 521 32,000  Level Atlanta Center
Wed 10:41:00 PM 33.2078 -84.1208 345° North 453 521 32,000  Level Atlanta Center
Wed 10:42:00 PM 33.3328 -84.1581 346° North 453 521 32,000  Level Atlanta Center
Wed 10:43:34 PM 34.0382 -84.3681 346° North 465 535 32,000  Level FlightAware ADS-B (KDZJ)
Wed 10:44:14 PM 34.1221 -84.3935 346° North 461 531 32,000  Level FlightAware ADS-B (KDZJ)
Wed 10:44:55 PM 34.2059 -84.4190 346° North 463 533 32,000  Level FlightAware ADS-B (KDZJ)
Wed 10:45:34 PM 34.2882 -84.4442 346° North 463 533 32,000  Level FlightAware ADS-B (KDZJ)
Wed 10:46:15 PM 34.3727 -84.4701 346° North 462 532 32,000  Level FlightAware ADS-B (KDZJ)
Wed 10:46:55 PM 34.4551 -84.4953 346° North 463 533 32,000  Level FlightAware ADS-B (KDZJ)
Wed 10:47:35 PM 34.5393 -84.5210 346° North 465 535 32,000  Level FlightAware ADS-B (KDZJ)
Wed 10:48:16 PM 34.6236 -84.5470 346° North 466 536 32,000  Level FlightAware ADS-B (KDZJ)
Wed 10:48:55 PM 34.7052 -84.5721 346° North 467 537 32,000  Level FlightAware ADS-B (KDZJ)
Wed 10:49:36 PM 34.7916 -84.5989 346° North 468 539 32,000  Level FlightAware ADS-B (KDZJ)
Wed 10:50:14 PM 34.8722 -84.6239 346° North 468 539 32,000  Level FlightAware ADS-B (KDZJ)
Wed 10:50:56 PM 34.9596 -84.6510 346° North 467 537 32,000  Level FlightAware ADS-B (KDZJ)
Wed 10:51:36 PM 35.0426 -84.6768 346° North 465 535 32,000  Level FlightAware ADS-B (KDZJ)
Wed 10:52:12 PM 35.1175 -84.7001 346° North 464 534 32,000  Level FlightAware ADS-B (KDZJ)
Wed 10:56:44 PM 35.1897 -84.7226 346° North 464 534 32,000  Level FlightAware ADS-B (KMDQ)
Wed 10:58:06 PM 35.3595 -84.7757 346° North 465 535 32,000  Level FlightAware ADS-B (KMDQ)
Wed 10:58:45 PM 35.4404 -84.8012 346° North 464 534 32,000  Level FlightAware ADS-B (KMDQ)
Wed 10:59:47 PM 35.5701 -84.8420 346° North 464 534 32,000  Level FlightAware ADS-B (KMDQ)
Wed 11:00:46 PM 35.6931 -84.8811 346° North 464 534 32,000 -450 Level FlightAware ADS-B (KMDQ)
Wed 11:01:47 PM 35.8203 -84.9213 346° North 466 536 31,100 -1,000 Descending FlightAware ADS-B (KMDQ)
Wed 11:02:22 PM 35.8926 -84.9444 346° North 465 535 30,400 -868 Descending FlightAware ADS-B (KMDQ)
Wed 11:03:03 PM 35.9667 -84.9680 346° North 459 528 30,000 -286 Descending FlightAware ADS-B (KMDQ)
Wed 11:03:46 PM 36.0506 -84.9947 345° North 455 524 30,000  Level FlightAware ADS-B (KMDQ)
Wed 11:04:27 PM 36.1486 -85.0315 340° North 456 525 30,000  Level FlightAware ADS-B (KMDQ)
Wed 11:05:34 PM 36.2817 -85.0893 341° North 458 527 30,000 -205 Level FlightAware ADS-B (KMDQ)
Wed 11:06:24 PM 36.3574 -85.1217 341° North 460 529 29,600 -812 Descending FlightAware ADS-B (KMDQ)
Wed 11:07:47 PM 36.5400 -85.1999 341° North 448 516 28,200 -1,034 Descending FlightAware ADS-B
Wed 11:08:49 PM 36.6619 -85.2522 341° North 437 503 27,100 -1,065 Descending FlightAware ADS-B
Wed 11:09:51 PM 36.7850 -85.3052 341° North 436 502 26,000 -1,237 Descending FlightAware ADS-B
Wed 11:11:00 PM 36.9131 -85.3607 341° North 441 507 24,400 -1,579 Descending FlightAware ADS-B
Wed 11:12:23 PM 37.0754 -85.4317 341° North 428 493 22,000 -2,250 Descending FlightAware ADS-B
Wed 11:13:24 PM 37.1871 -85.4804 341° North 418 481 19,000 -3,197 Descending FlightAware ADS-B
Wed 11:14:25 PM 37.2965 -85.5280 341° North 396 456 15,500 -3,471 Descending FlightAware ADS-B
Wed 11:15:25 PM 37.3976 -85.5721 341° North 376 433 12,000 -2,450 Descending FlightAware ADS-B
Wed 11:16:25 PM 37.4859 -85.6080 348° North 309 356 10,600 -1,650 Descending FlightAware ADS-B
Wed 11:17:25 PM 37.5669 -85.6304 348° North 287 330 8,700 -2,017 Descending FlightAware ADS-B
Wed 11:18:24 PM 37.6446 -85.6103 18° North 291 335 6,600 -1,600 Descending FlightAware ADS-B
Wed 11:19:25 PM 37.7195 -85.5987 351° North 256 295 5,500 -843 Descending FlightAware ADS-B
Wed 11:20:25 PM 37.7879 -85.6147 347° North 243 280 4,900 -250 Descending FlightAware ADS-B
Wed 11:21:25 PM 37.8514 -85.6382 341° North 233 268 5,000  Climbing FlightAware ADS-B
Wed 11:22:24 PM 37.9134 -85.6615 351° North 233 268 4,900 -504 Descending FlightAware ADS-B
Wed 11:23:24 PM 37.9719 -85.6764 343° North 197 227 4,000 -900 Descending FlightAware ADS-B
Wed 11:24:24 PM 38.0212 -85.6950 347° North 185 213 3,100 -912 Descending FlightAware ADS-B
Wed 11:25:29 PM 38.0720 -85.7109 345° North 150 173 2,100 -823 Descending FlightAware ADS-B
Wed 11:26:28 PM 38.1051 -85.7219 346° North 148 170 1,400 -750 Descending FlightAware ADS-B
Wed 11:26:57 PM 38.1304 -85.7302 345° North 148 170 1,000 -828 Descending FlightAware ADS-B
Wed 11:34:00 PM 38.1667 -85.7333 293° West  Level FlightAware Approximate
Wed 11:35:00 PM 38.1741 -85.7365 293° West  Level Estimated

Login

Don't have an account? Register now (free) for customized features, flight alerts, and more!